JST600 YSCB-YSSY
Flight info
| Callsign | JST600 |
|---|---|
| Flight time | 0h 29m |
| Altitude | 17000 |
| Route | CB W423 CULIN Y59 RIVET |
| Aircraft | A320/M-SDE3FGHIRWY/LB1 |
Departure
| Time | 2026-05-07 20:50 |
|---|---|
| Airport | Canberra Airport (YSCB) |
Arrival
| Time | 2026-05-07 21:19 |
|---|---|
| Airport | Sydney Kingsford Smith International Airport (YSSY) |
| Time | Latitude | Longitude | Altitude | Speed | Heading |
|---|---|---|---|---|---|
| 2026-05-07 20:15 | -35.30682 | 149.19093 | 1880 ft | 0 kts | 231° |
| 2026-05-07 20:39 | -35.30672 | 149.19107 | 1875 ft | 4 kts | 232° |
| 2026-05-07 20:39 | -35.30658 | 149.19131 | 1880 ft | 1 kts | 232° |
| 2026-05-07 20:40 | -35.30643 | 149.19154 | 1878 ft | 4 kts | 232° |
| 2026-05-07 20:40 | -35.30643 | 149.19169 | 1877 ft | 4 kts | 158° |
| 2026-05-07 20:40 | -35.30633 | 149.19157 | 1880 ft | 4 kts | 131° |
| 2026-05-07 20:40 | -35.30616 | 149.19132 | 1880 ft | 4 kts | 130° |
| 2026-05-07 20:41 | -35.30612 | 149.19126 | 1880 ft | 0 kts | 130° |
| 2026-05-07 20:42 | -35.30621 | 149.19140 | 1877 ft | 4 kts | 130° |
| 2026-05-07 20:43 | -35.30646 | 149.19175 | 1877 ft | 7 kts | 130° |
| 2026-05-07 20:43 | -35.30687 | 149.19226 | 1876 ft | 10 kts | 143° |
| 2026-05-07 20:43 | -35.30762 | 149.19239 | 1880 ft | 12 kts | 180° |
| 2026-05-07 20:43 | -35.30854 | 149.19240 | 1877 ft | 14 kts | 180° |
| 2026-05-07 20:44 | -35.30959 | 149.19240 | 1880 ft | 16 kts | 180° |
| 2026-05-07 20:44 | -35.31079 | 149.19240 | 1880 ft | 18 kts | 180° |
| 2026-05-07 20:44 | -35.31215 | 149.19239 | 1877 ft | 21 kts | 180° |
| 2026-05-07 20:44 | -35.31366 | 149.19240 | 1880 ft | 23 kts | 180° |
| 2026-05-07 20:45 | -35.31534 | 149.19240 | 1878 ft | 25 kts | 180° |
| 2026-05-07 20:45 | -35.31718 | 149.19239 | 1880 ft | 27 kts | 180° |
| 2026-05-07 20:45 | -35.31864 | 149.19241 | 1880 ft | 16 kts | 179° |
| 2026-05-07 20:45 | -35.31951 | 149.19252 | 1880 ft | 11 kts | 159° |
| 2026-05-07 20:46 | -35.32001 | 149.19314 | 1880 ft | 8 kts | 115° |
| 2026-05-07 20:46 | -35.32011 | 149.19388 | 1880 ft | 10 kts | 90° |
| 2026-05-07 20:46 | -35.32001 | 149.19445 | 1880 ft | 1 kts | 43° |
| 2026-05-07 20:46 | -35.31988 | 149.19446 | 1878 ft | 3 kts | 2° |
| 2026-05-07 20:47 | -35.31980 | 149.19446 | 1880 ft | 0 kts | 359° |
| 2026-05-07 20:49 | -35.31979 | 149.19446 | 1880 ft | 0 kts | 359° |
| 2026-05-07 20:49 | -35.31974 | 149.19446 | 1877 ft | 8 kts | 359° |
| 2026-05-07 20:49 | -35.31672 | 149.19445 | 1880 ft | 76 kts | 0° |
| 2026-05-07 20:49 | -35.30951 | 149.19444 | 1877 ft | 128 kts | 360° |
| 2026-05-07 20:50 | -35.29929 | 149.19444 | 2047 ft | 153 kts | 356° |
| 2026-05-07 20:50 | -35.28889 | 149.19452 | 2698 ft | 150 kts | 358° |
| 2026-05-07 20:50 | -35.27836 | 149.19554 | 3361 ft | 154 kts | 359° |
| 2026-05-07 20:50 | -35.26727 | 149.19687 | 3795 ft | 171 kts | 358° |
| 2026-05-07 20:51 | -35.25470 | 149.19820 | 4094 ft | 191 kts | 359° |
| 2026-05-07 20:51 | -35.24073 | 149.19968 | 4450 ft | 212 kts | 359° |
| 2026-05-07 20:51 | -35.22537 | 149.20141 | 4780 ft | 237 kts | 360° |
| 2026-05-07 20:51 | -35.20788 | 149.20349 | 5260 ft | 261 kts | 0° |
| 2026-05-07 20:52 | -35.18929 | 149.20575 | 5773 ft | 282 kts | 1° |
| 2026-05-07 20:52 | -35.16897 | 149.20828 | 6467 ft | 297 kts | 1° |
| 2026-05-07 20:52 | -35.14830 | 149.21087 | 7183 ft | 306 kts | 2° |
| 2026-05-07 20:52 | -35.12698 | 149.21359 | 8063 ft | 310 kts | 3° |
| 2026-05-07 20:53 | -35.10574 | 149.21946 | 8919 ft | 318 kts | 17° |
| 2026-05-07 20:53 | -35.08493 | 149.22919 | 9778 ft | 322 kts | 18° |
| 2026-05-07 20:53 | -35.06378 | 149.23916 | 10418 ft | 334 kts | 18° |
| 2026-05-07 20:53 | -35.04131 | 149.24966 | 10660 ft | 357 kts | 18° |
| 2026-05-07 20:54 | -35.01732 | 149.26082 | 10854 ft | 380 kts | 18° |
| 2026-05-07 20:54 | -34.99192 | 149.27262 | 11093 ft | 399 kts | 18° |
| 2026-05-07 20:54 | -34.96572 | 149.28483 | 11659 ft | 406 kts | 18° |
| 2026-05-07 20:54 | -34.93918 | 149.29724 | 12308 ft | 411 kts | 18° |
| 2026-05-07 20:55 | -34.91229 | 149.30986 | 12935 ft | 416 kts | 18° |
| 2026-05-07 20:55 | -34.88509 | 149.32259 | 13545 ft | 422 kts | 18° |
| 2026-05-07 20:55 | -34.85754 | 149.33542 | 14164 ft | 427 kts | 17° |
| 2026-05-07 20:55 | -34.82964 | 149.34839 | 14714 ft | 432 kts | 17° |
| 2026-05-07 20:56 | -34.80140 | 149.36152 | 15282 ft | 436 kts | 18° |
| 2026-05-07 20:56 | -34.77396 | 149.37801 | 15814 ft | 445 kts | 29° |
| 2026-05-07 20:56 | -34.74919 | 149.40006 | 16341 ft | 451 kts | 41° |
| 2026-05-07 20:56 | -34.72739 | 149.42771 | 16946 ft | 455 kts | 52° |
| 2026-05-07 20:57 | -34.71003 | 149.45938 | 17847 ft | 448 kts | 63° |
| 2026-05-07 20:57 | -34.69526 | 149.49296 | 18537 ft | 450 kts | 64° |
| 2026-05-07 20:57 | -34.68053 | 149.52663 | 19128 ft | 451 kts | 64° |
| 2026-05-07 20:57 | -34.66598 | 149.55987 | 20153 ft | 441 kts | 64° |
| 2026-05-07 20:58 | -34.65159 | 149.59275 | 20863 ft | 442 kts | 64° |
| 2026-05-07 20:58 | -34.63710 | 149.62585 | 21435 ft | 445 kts | 64° |
| 2026-05-07 20:58 | -34.62248 | 149.65923 | 21924 ft | 450 kts | 64° |
| 2026-05-07 20:58 | -34.60771 | 149.69292 | 22401 ft | 454 kts | 63° |
| 2026-05-07 20:59 | -34.59281 | 149.72685 | 22920 ft | 457 kts | 63° |
| 2026-05-07 20:59 | -34.57774 | 149.76110 | 23442 ft | 461 kts | 63° |
| 2026-05-07 20:59 | -34.56258 | 149.79555 | 23941 ft | 465 kts | 63° |
| 2026-05-07 20:59 | -34.54730 | 149.83029 | 24369 ft | 468 kts | 63° |
| 2026-05-07 21:00 | -34.53190 | 149.86526 | 24830 ft | 471 kts | 63° |
| 2026-05-07 21:00 | -34.51658 | 149.89998 | 25164 ft | 478 kts | 63° |
| 2026-05-07 21:00 | -34.50069 | 149.93602 | 25222 ft | 491 kts | 63° |
| 2026-05-07 21:00 | -34.48470 | 149.97225 | 25197 ft | 486 kts | 63° |
| 2026-05-07 21:01 | -34.46840 | 150.00915 | 24960 ft | 505 kts | 63° |
| 2026-05-07 21:01 | -34.45170 | 150.04689 | 23956 ft | 513 kts | 63° |
| 2026-05-07 21:01 | -34.43465 | 150.08536 | 22593 ft | 521 kts | 63° |
| 2026-05-07 21:01 | -34.41748 | 150.12401 | 21619 ft | 519 kts | 63° |
| 2026-05-07 21:02 | -34.40036 | 150.16243 | 20560 ft | 518 kts | 63° |
| 2026-05-07 21:02 | -34.38326 | 150.20076 | 19518 ft | 517 kts | 62° |
| 2026-05-07 21:02 | -34.36624 | 150.23888 | 18737 ft | 510 kts | 62° |
| 2026-05-07 21:02 | -34.34956 | 150.27628 | 18127 ft | 493 kts | 62° |
| 2026-05-07 21:03 | -34.33381 | 150.31152 | 17721 ft | 462 kts | 62° |
| 2026-05-07 21:03 | -34.31890 | 150.34480 | 17108 ft | 442 kts | 62° |
| 2026-05-07 21:03 | -34.30442 | 150.37714 | 16219 ft | 432 kts | 63° |
| 2026-05-07 21:03 | -34.29025 | 150.40877 | 15309 ft | 424 kts | 63° |
| 2026-05-07 21:04 | -34.27647 | 150.43961 | 14776 ft | 406 kts | 63° |
| 2026-05-07 21:04 | -34.26769 | 150.45925 | 14485 ft | 394 kts | 64° |
| 2026-05-07 21:04 | -34.25083 | 150.49700 | 13839 ft | 377 kts | 63° |
| 2026-05-07 21:04 | -34.23856 | 150.52443 | 13346 ft | 364 kts | 63° |
| 2026-05-07 21:05 | -34.22666 | 150.55098 | 12904 ft | 360 kts | 63° |
| 2026-05-07 21:05 | -34.21471 | 150.57766 | 12444 ft | 361 kts | 63° |
| 2026-05-07 21:05 | -34.20681 | 150.59531 | 12145 ft | 361 kts | 63° |
| 2026-05-07 21:05 | -34.19488 | 150.62195 | 11687 ft | 360 kts | 64° |
| 2026-05-07 21:06 | -34.18296 | 150.64851 | 11228 ft | 359 kts | 63° |
| 2026-05-07 21:06 | -34.17105 | 150.67501 | 10738 ft | 360 kts | 64° |
| 2026-05-07 21:06 | -34.15913 | 150.70166 | 10350 ft | 356 kts | 64° |
| 2026-05-07 21:06 | -34.14753 | 150.72751 | 10237 ft | 344 kts | 63° |
| 2026-05-07 21:07 | -34.13628 | 150.75245 | 10118 ft | 333 kts | 63° |
| 2026-05-07 21:07 | -34.12533 | 150.77668 | 9904 ft | 326 kts | 63° |
| 2026-05-07 21:07 | -34.11448 | 150.80070 | 9538 ft | 324 kts | 63° |
| 2026-05-07 21:07 | -34.10373 | 150.82452 | 9180 ft | 323 kts | 63° |
| 2026-05-07 21:08 | -34.09303 | 150.84821 | 8894 ft | 319 kts | 63° |
| 2026-05-07 21:08 | -34.08248 | 150.87157 | 8483 ft | 315 kts | 64° |
| 2026-05-07 21:08 | -34.07209 | 150.89466 | 8111 ft | 310 kts | 64° |
| 2026-05-07 21:08 | -34.06185 | 150.91739 | 7807 ft | 307 kts | 64° |
| 2026-05-07 21:09 | -34.05168 | 150.93991 | 7514 ft | 305 kts | 64° |
| 2026-05-07 21:09 | -34.04194 | 150.96205 | 7222 ft | 301 kts | 69° |
| 2026-05-07 21:09 | -34.03673 | 150.98628 | 6930 ft | 292 kts | 90° |
| 2026-05-07 21:09 | -34.03834 | 151.01015 | 6649 ft | 282 kts | 109° |
| 2026-05-07 21:10 | -34.04563 | 151.03130 | 6356 ft | 271 kts | 127° |
| 2026-05-07 21:10 | -34.05737 | 151.04854 | 6074 ft | 265 kts | 140° |
| 2026-05-07 21:10 | -34.07029 | 151.06422 | 5790 ft | 261 kts | 145° |
| 2026-05-07 21:10 | -34.08516 | 151.07616 | 5529 ft | 253 kts | 159° |
| 2026-05-07 21:11 | -34.10159 | 151.08289 | 5314 ft | 247 kts | 172° |
| 2026-05-07 21:11 | -34.11834 | 151.08714 | 5077 ft | 244 kts | 172° |
| 2026-05-07 21:11 | -34.15137 | 151.09566 | 4607 ft | 243 kts | 172° |
| 2026-05-07 21:12 | -34.16791 | 151.09994 | 4370 ft | 244 kts | 172° |
| 2026-05-07 21:12 | -34.18450 | 151.10426 | 4137 ft | 244 kts | 172° |
| 2026-05-07 21:12 | -34.20104 | 151.10906 | 3915 ft | 246 kts | 165° |
| 2026-05-07 21:12 | -34.21608 | 151.11951 | 3736 ft | 255 kts | 144° |
| 2026-05-07 21:13 | -34.22721 | 151.13667 | 3544 ft | 266 kts | 121° |
| 2026-05-07 21:13 | -34.23219 | 151.15844 | 3345 ft | 274 kts | 97° |
| 2026-05-07 21:13 | -34.22956 | 151.18144 | 3139 ft | 282 kts | 72° |
| 2026-05-07 21:13 | -34.21931 | 151.20158 | 2977 ft | 281 kts | 47° |
| 2026-05-07 21:14 | -34.20569 | 151.21783 | 2904 ft | 269 kts | 45° |
| 2026-05-07 21:14 | -34.19194 | 151.23239 | 2819 ft | 257 kts | 31° |
| 2026-05-07 21:14 | -34.17612 | 151.24077 | 2737 ft | 242 kts | 9° |
| 2026-05-07 21:14 | -34.15989 | 151.24245 | 2626 ft | 229 kts | 350° |
| 2026-05-07 21:15 | -34.14464 | 151.23904 | 2533 ft | 225 kts | 341° |
| 2026-05-07 21:15 | -34.12939 | 151.23502 | 2413 ft | 223 kts | 341° |
| 2026-05-07 21:15 | -34.11431 | 151.23111 | 2323 ft | 219 kts | 341° |
| 2026-05-07 21:15 | -34.09949 | 151.22729 | 2222 ft | 217 kts | 341° |
| 2026-05-07 21:16 | -34.08499 | 151.22355 | 2092 ft | 209 kts | 340° |
| 2026-05-07 21:16 | -34.07111 | 151.21995 | 2007 ft | 201 kts | 339° |
| 2026-05-07 21:16 | -34.05767 | 151.21645 | 1840 ft | 194 kts | 339° |
| 2026-05-07 21:16 | -34.04484 | 151.21312 | 1562 ft | 183 kts | 339° |
| 2026-05-07 21:17 | -34.03277 | 151.20999 | 1320 ft | 172 kts | 339° |
| 2026-05-07 21:17 | -34.02141 | 151.20704 | 1092 ft | 162 kts | 339° |
| 2026-05-07 21:17 | -34.01089 | 151.20429 | 858 ft | 151 kts | 341° |
| 2026-05-07 21:17 | -34.00093 | 151.20171 | 686 ft | 139 kts | 340° |
| 2026-05-07 21:18 | -33.99181 | 151.19935 | 478 ft | 131 kts | 344° |
| 2026-05-07 21:18 | -33.98307 | 151.19705 | 320 ft | 129 kts | 345° |
| 2026-05-07 21:18 | -33.97441 | 151.19470 | 148 ft | 127 kts | 345° |
| 2026-05-07 21:18 | -33.96595 | 151.19249 | 27 ft | 113 kts | 347° |
| 2026-05-07 21:19 | -33.95984 | 151.19091 | 28 ft | 65 kts | 348° |
| 2026-05-07 21:19 | -33.95629 | 151.19000 | 25 ft | 48 kts | 348° |
| 2026-05-07 21:19 | -33.95369 | 151.18904 | 24 ft | 34 kts | 337° |
| 2026-05-07 21:19 | -33.95215 | 151.18768 | 29 ft | 22 kts | 318° |
| 2026-05-07 21:20 | -33.95111 | 151.18653 | 30 ft | 16 kts | 315° |
| 2026-05-07 21:20 | -33.95081 | 151.18536 | 30 ft | 15 kts | 291° |
| 2026-05-07 21:20 | -33.95043 | 151.18412 | 30 ft | 18 kts | 261° |
| 2026-05-07 21:20 | -33.95073 | 151.18257 | 30 ft | 21 kts | 258° |
| 2026-05-07 21:21 | -33.95103 | 151.18076 | 30 ft | 23 kts | 259° |
| 2026-05-07 21:21 | -33.95083 | 151.17939 | 30 ft | 16 kts | 333° |
| 2026-05-07 21:21 | -33.94947 | 151.17904 | 30 ft | 24 kts | 347° |
| 2026-05-07 21:21 | -33.94780 | 151.17859 | 30 ft | 26 kts | 348° |
| 2026-05-07 21:22 | -33.94602 | 151.17814 | 29 ft | 24 kts | 347° |
| 2026-05-07 21:22 | -33.94503 | 151.17843 | 30 ft | 16 kts | 61° |
| 2026-05-07 21:22 | -33.94410 | 151.17913 | 30 ft | 18 kts | 348° |
| 2026-05-07 21:22 | -33.94280 | 151.17877 | 30 ft | 20 kts | 348° |
| 2026-05-07 21:23 | -33.94132 | 151.17838 | 29 ft | 23 kts | 347° |
| 2026-05-07 21:23 | -33.93970 | 151.17797 | 29 ft | 24 kts | 347° |
| 2026-05-07 21:23 | -33.93854 | 151.17766 | 30 ft | 13 kts | 349° |
| 2026-05-07 21:23 | -33.93758 | 151.17778 | 30 ft | 15 kts | 14° |
| 2026-05-07 21:24 | -33.93658 | 151.17808 | 30 ft | 12 kts | 13° |
| 2026-05-07 21:24 | -33.93570 | 151.17827 | 30 ft | 11 kts | 8° |
| 2026-05-07 21:24 | -33.93530 | 151.17809 | 30 ft | 7 kts | 282° |
| 2026-05-07 21:24 | -33.93524 | 151.17765 | 30 ft | 0 kts | 280° |